sensor_id;sensor_type;location;lat;lon;timestamp;temperature;humidity
8824;DHT22;4448;50.904;4.694;2023-02-04T00:01:47;10.40;99.90
8824;DHT22;4448;50.904;4.694;2023-02-04T00:04:12;10.40;99.90
8824;DHT22;4448;50.904;4.694;2023-02-04T00:06:38;10.40;99.90
8824;DHT22;4448;50.904;4.694;2023-02-04T00:09:04;10.40;99.90
8824;DHT22;4448;50.904;4.694;2023-02-04T00:11:29;10.40;99.90
8824;DHT22;4448;50.904;4.694;2023-02-04T00:13:55;10.40;99.90
8824;DHT22;4448;50.904;4.694;2023-02-04T00:16:21;10.40;99.90
8824;DHT22;4448;50.904;4.694;2023-02-04T00:18:46;10.40;99.90
8824;DHT22;4448;50.904;4.694;2023-02-04T00:21:12;10.40;99.90
8824;DHT22;4448;50.904;4.694;2023-02-04T00:23:37;10.40;99.90
8824;DHT22;4448;50.904;4.694;2023-02-04T00:26:03;10.40;99.90
8824;DHT22;4448;50.904;4.694;2023-02-04T00:28:29;10.30;99.90
8824;DHT22;4448;50.904;4.694;2023-02-04T00:30:54;10.40;99.90
8824;DHT22;4448;50.904;4.694;2023-02-04T00:33:20;10.40;99.90
8824;DHT22;4448;50.904;4.694;2023-02-04T00:35:46;10.40;99.90
8824;DHT22;4448;50.904;4.694;2023-02-04T00:38:11;10.40;99.90
8824;DHT22;4448;50.904;4.694;2023-02-04T00:40:37;10.40;99.90
8824;DHT22;4448;50.904;4.694;2023-02-04T00:43:02;10.40;99.90
8824;DHT22;4448;50.904;4.694;2023-02-04T00:45:28;10.40;99.90
8824;DHT22;4448;50.904;4.694;2023-02-04T00:47:54;10.40;99.90
8824;DHT22;4448;50.904;4.694;2023-02-04T00:50:19;10.40;99.90
8824;DHT22;4448;50.904;4.694;2023-02-04T00:52:45;10.40;99.90
8824;DHT22;4448;50.904;4.694;2023-02-04T00:55:11;10.40;99.90
8824;DHT22;4448;50.904;4.694;2023-02-04T00:57:37;10.40;99.90
8824;DHT22;4448;50.904;4.694;2023-02-04T01:00:05;10.40;99.90
8824;DHT22;4448;50.904;4.694;2023-02-04T01:02:30;10.40;99.90
8824;DHT22;4448;50.904;4.694;2023-02-04T01:04:56;10.40;99.90
8824;DHT22;4448;50.904;4.694;2023-02-04T01:07:22;10.40;99.90
8824;DHT22;4448;50.904;4.694;2023-02-04T01:09:48;10.30;99.90
8824;DHT22;4448;50.904;4.694;2023-02-04T01:12:13;10.30;99.90
8824;DHT22;4448;50.904;4.694;2023-02-04T01:14:39;10.40;99.90
8824;DHT22;4448;50.904;4.694;2023-02-04T01:17:05;10.40;99.90
8824;DHT22;4448;50.904;4.694;2023-02-04T01:19:30;10.40;99.90
8824;DHT22;4448;50.904;4.694;2023-02-04T01:21:56;10.40;99.90
8824;DHT22;4448;50.904;4.694;2023-02-04T01:24:21;10.40;99.90
8824;DHT22;4448;50.904;4.694;2023-02-04T01:26:47;10.30;99.90
8824;DHT22;4448;50.904;4.694;2023-02-04T01:29:13;10.40;99.90
8824;DHT22;4448;50.904;4.694;2023-02-04T01:31:38;10.40;99.90
8824;DHT22;4448;50.904;4.694;2023-02-04T01:34:04;10.40;99.90
8824;DHT22;4448;50.904;4.694;2023-02-04T01:36:29;10.30;99.90
8824;DHT22;4448;50.904;4.694;2023-02-04T01:38:55;10.40;99.90
8824;DHT22;4448;50.904;4.694;2023-02-04T01:41:22;10.30;99.90
8824;DHT22;4448;50.904;4.694;2023-02-04T01:43:48;10.30;99.90
8824;DHT22;4448;50.904;4.694;2023-02-04T01:46:14;10.30;99.90
8824;DHT22;4448;50.904;4.694;2023-02-04T01:48:40;10.30;99.90
8824;DHT22;4448;50.904;4.694;2023-02-04T01:51:11;10.30;99.90
8824;DHT22;4448;50.904;4.694;2023-02-04T01:53:38;10.30;99.90
8824;DHT22;4448;50.904;4.694;2023-02-04T01:58:41;10.20;99.90
8824;DHT22;4448;50.904;4.694;2023-02-04T02:01:31;10.20;99.90
8824;DHT22;4448;50.904;4.694;2023-02-04T02:03:57;10.20;99.90
8824;DHT22;4448;50.904;4.694;2023-02-04T02:06:23;10.10;99.90
8824;DHT22;4448;50.904;4.694;2023-02-04T02:08:48;10.10;99.90
8824;DHT22;4448;50.904;4.694;2023-02-04T02:11:14;10.10;99.90
8824;DHT22;4448;50.904;4.694;2023-02-04T02:13:40;10.10;99.90
8824;DHT22;4448;50.904;4.694;2023-02-04T02:16:06;10.10;99.90
8824;DHT22;4448;50.904;4.694;2023-02-04T02:18:31;10.10;99.90
8824;DHT22;4448;50.904;4.694;2023-02-04T02:20:59;10.10;99.90
8824;DHT22;4448;50.904;4.694;2023-02-04T02:23:53;10.00;99.90
8824;DHT22;4448;50.904;4.694;2023-02-04T02:26:19;10.00;99.90
8824;DHT22;4448;50.904;4.694;2023-02-04T02:28:46;10.00;99.90
8824;DHT22;4448;50.904;4.694;2023-02-04T02:31:13;10.00;99.90
8824;DHT22;4448;50.904;4.694;2023-02-04T02:33:39;10.00;99.90
8824;DHT22;4448;50.904;4.694;2023-02-04T02:36:05;10.00;99.90
8824;DHT22;4448;50.904;4.694;2023-02-04T02:38:31;10.00;99.90
8824;DHT22;4448;50.904;4.694;2023-02-04T02:40:57;9.90;99.90
8824;DHT22;4448;50.904;4.694;2023-02-04T02:43:25;10.00;99.90
8824;DHT22;4448;50.904;4.694;2023-02-04T02:45:51;9.90;99.90
8824;DHT22;4448;50.904;4.694;2023-02-04T02:48:18;10.00;99.90
8824;DHT22;4448;50.904;4.694;2023-02-04T02:50:44;9.90;99.90
8824;DHT22;4448;50.904;4.694;2023-02-04T02:53:12;9.90;99.90
8824;DHT22;4448;50.904;4.694;2023-02-04T02:55:38;9.90;99.90
8824;DHT22;4448;50.904;4.694;2023-02-04T02:58:09;9.90;99.90
8824;DHT22;4448;50.904;4.694;2023-02-04T03:00:36;10.00;99.90
8824;DHT22;4448;50.904;4.694;2023-02-04T03:03:15;9.90;99.90
8824;DHT22;4448;50.904;4.694;2023-02-04T03:05:44;9.90;99.90
8824;DHT22;4448;50.904;4.694;2023-02-04T03:08:13;9.90;99.90
8824;DHT22;4448;50.904;4.694;2023-02-04T03:10:40;9.90;99.90
8824;DHT22;4448;50.904;4.694;2023-02-04T03:13:06;9.90;99.90
8824;DHT22;4448;50.904;4.694;2023-02-04T03:15:32;9.90;99.90
8824;DHT22;4448;50.904;4.694;2023-02-04T03:17:59;9.90;99.90
8824;DHT22;4448;50.904;4.694;2023-02-04T03:20:26;9.90;99.90
8824;DHT22;4448;50.904;4.694;2023-02-04T03:22:53;9.90;99.90
8824;DHT22;4448;50.904;4.694;2023-02-04T03:25:19;9.90;99.90
8824;DHT22;4448;50.904;4.694;2023-02-04T03:27:49;9.90;99.90
8824;DHT22;4448;50.904;4.694;2023-02-04T03:30:15;9.90;99.90
8824;DHT22;4448;50.904;4.694;2023-02-04T03:32:41;9.90;99.90
8824;DHT22;4448;50.904;4.694;2023-02-04T03:35:07;9.90;99.90
8824;DHT22;4448;50.904;4.694;2023-02-04T03:37:32;9.90;99.90
8824;DHT22;4448;50.904;4.694;2023-02-04T03:39:58;9.90;99.90
8824;DHT22;4448;50.904;4.694;2023-02-04T03:42:24;9.90;99.90
8824;DHT22;4448;50.904;4.694;2023-02-04T03:44:50;9.90;99.90
8824;DHT22;4448;50.904;4.694;2023-02-04T03:47:15;9.90;99.90
8824;DHT22;4448;50.904;4.694;2023-02-04T03:49:41;9.90;99.90
8824;DHT22;4448;50.904;4.694;2023-02-04T03:52:07;9.90;99.90
8824;DHT22;4448;50.904;4.694;2023-02-04T03:54:32;9.90;99.90
8824;DHT22;4448;50.904;4.694;2023-02-04T03:56:58;9.80;99.90
8824;DHT22;4448;50.904;4.694;2023-02-04T03:59:23;9.80;99.90
8824;DHT22;4448;50.904;4.694;2023-02-04T04:01:49;9.80;99.90
8824;DHT22;4448;50.904;4.694;2023-02-04T04:04:17;9.80;99.90
8824;DHT22;4448;50.904;4.694;2023-02-04T04:06:42;9.80;99.90
8824;DHT22;4448;50.904;4.694;2023-02-04T04:09:08;9.80;99.90
8824;DHT22;4448;50.904;4.694;2023-02-04T04:11:34;9.80;99.90
8824;DHT22;4448;50.904;4.694;2023-02-04T04:13:59;9.80;99.90
8824;DHT22;4448;50.904;4.694;2023-02-04T04:16:26;9.80;99.90
8824;DHT22;4448;50.904;4.694;2023-02-04T04:18:51;9.80;99.90
8824;DHT22;4448;50.904;4.694;2023-02-04T04:21:17;9.90;99.90
8824;DHT22;4448;50.904;4.694;2023-02-04T04:23:42;9.90;99.90
8824;DHT22;4448;50.904;4.694;2023-02-04T04:26:08;9.80;99.90
8824;DHT22;4448;50.904;4.694;2023-02-04T04:28:34;9.80;99.90
8824;DHT22;4448;50.904;4.694;2023-02-04T04:30:59;9.80;99.90
8824;DHT22;4448;50.904;4.694;2023-02-04T04:33:25;9.80;99.90
8824;DHT22;4448;50.904;4.694;2023-02-04T04:35:50;9.80;99.90
8824;DHT22;4448;50.904;4.694;2023-02-04T04:38:16;9.80;99.90
8824;DHT22;4448;50.904;4.694;2023-02-04T04:40:41;9.80;99.90
8824;DHT22;4448;50.904;4.694;2023-02-04T04:43:07;9.80;99.90
8824;DHT22;4448;50.904;4.694;2023-02-04T04:45:33;9.80;99.90
8824;DHT22;4448;50.904;4.694;2023-02-04T04:47:58;9.80;99.90
8824;DHT22;4448;50.904;4.694;2023-02-04T04:50:24;9.80;99.90
8824;DHT22;4448;50.904;4.694;2023-02-04T04:52:49;9.80;99.90
8824;DHT22;4448;50.904;4.694;2023-02-04T04:55:15;9.80;99.90
8824;DHT22;4448;50.904;4.694;2023-02-04T04:57:41;9.80;99.90
8824;DHT22;4448;50.904;4.694;2023-02-04T05:00:07;9.80;99.90
8824;DHT22;4448;50.904;4.694;2023-02-04T05:02:33;9.80;99.90
8824;DHT22;4448;50.904;4.694;2023-02-04T05:04:59;9.80;99.90
8824;DHT22;4448;50.904;4.694;2023-02-04T05:07:24;9.80;99.90
8824;DHT22;4448;50.904;4.694;2023-02-04T05:09:50;9.80;99.90
8824;DHT22;4448;50.904;4.694;2023-02-04T05:12:15;9.80;99.90
8824;DHT22;4448;50.904;4.694;2023-02-04T05:14:41;9.80;99.90
8824;DHT22;4448;50.904;4.694;2023-02-04T05:17:07;9.70;99.90
8824;DHT22;4448;50.904;4.694;2023-02-04T05:19:32;9.80;99.90
8824;DHT22;4448;50.904;4.694;2023-02-04T05:21:58;9.80;99.90
8824;DHT22;4448;50.904;4.694;2023-02-04T05:24:26;9.70;99.90
8824;DHT22;4448;50.904;4.694;2023-02-04T05:26:52;9.70;99.90
8824;DHT22;4448;50.904;4.694;2023-02-04T05:29:17;9.70;99.90
8824;DHT22;4448;50.904;4.694;2023-02-04T05:31:43;9.80;99.90
8824;DHT22;4448;50.904;4.694;2023-02-04T05:34:08;9.80;99.90
8824;DHT22;4448;50.904;4.694;2023-02-04T05:36:34;9.80;99.90
8824;DHT22;4448;50.904;4.694;2023-02-04T05:39:00;9.80;99.90
8824;DHT22;4448;50.904;4.694;2023-02-04T05:41:25;9.70;99.90
8824;DHT22;4448;50.904;4.694;2023-02-04T05:43:51;9.80;99.90
8824;DHT22;4448;50.904;4.694;2023-02-04T05:46:17;9.70;99.90
8824;DHT22;4448;50.904;4.694;2023-02-04T05:48:43;9.80;99.90
8824;DHT22;4448;50.904;4.694;2023-02-04T05:51:08;9.80;99.90
8824;DHT22;4448;50.904;4.694;2023-02-04T05:53:34;9.80;99.90
8824;DHT22;4448;50.904;4.694;2023-02-04T05:56:00;9.80;99.90
8824;DHT22;4448;50.904;4.694;2023-02-04T05:58:25;9.80;99.90
8824;DHT22;4448;50.904;4.694;2023-02-04T06:00:58;9.80;99.90
8824;DHT22;4448;50.904;4.694;2023-02-04T06:03:24;9.80;99.90
8824;DHT22;4448;50.904;4.694;2023-02-04T06:05:50;9.80;99.90
8824;DHT22;4448;50.904;4.694;2023-02-04T06:08:15;9.80;99.90
8824;DHT22;4448;50.904;4.694;2023-02-04T06:10:41;9.70;99.90
8824;DHT22;4448;50.904;4.694;2023-02-04T06:13:07;9.80;99.90
8824;DHT22;4448;50.904;4.694;2023-02-04T06:15:32;9.80;99.90
8824;DHT22;4448;50.904;4.694;2023-02-04T06:17:58;9.80;99.90
8824;DHT22;4448;50.904;4.694;2023-02-04T06:20:23;9.80;99.90
8824;DHT22;4448;50.904;4.694;2023-02-04T06:22:49;9.80;99.90
8824;DHT22;4448;50.904;4.694;2023-02-04T06:25:16;9.80;99.90
8824;DHT22;4448;50.904;4.694;2023-02-04T06:27:42;9.80;99.90
8824;DHT22;4448;50.904;4.694;2023-02-04T06:30:09;9.80;99.90
8824;DHT22;4448;50.904;4.694;2023-02-04T06:32:35;9.80;99.90
8824;DHT22;4448;50.904;4.694;2023-02-04T06:35:01;9.80;99.90
8824;DHT22;4448;50.904;4.694;2023-02-04T06:37:27;9.80;99.90
8824;DHT22;4448;50.904;4.694;2023-02-04T06:39:52;9.80;99.90
8824;DHT22;4448;50.904;4.694;2023-02-04T06:42:19;9.70;99.90
8824;DHT22;4448;50.904;4.694;2023-02-04T06:44:45;9.80;99.90
8824;DHT22;4448;50.904;4.694;2023-02-04T06:47:11;9.80;99.90
8824;DHT22;4448;50.904;4.694;2023-02-04T06:49:36;9.80;99.90
8824;DHT22;4448;50.904;4.694;2023-02-04T06:52:02;9.80;99.90
8824;DHT22;4448;50.904;4.694;2023-02-04T06:54:28;9.80;99.90
8824;DHT22;4448;50.904;4.694;2023-02-04T06:56:53;9.80;99.90
8824;DHT22;4448;50.904;4.694;2023-02-04T06:59:19;9.80;99.90
8824;DHT22;4448;50.904;4.694;2023-02-04T07:01:45;9.80;99.90
8824;DHT22;4448;50.904;4.694;2023-02-04T07:04:10;9.80;99.90
8824;DHT22;4448;50.904;4.694;2023-02-04T07:06:36;9.80;99.90
8824;DHT22;4448;50.904;4.694;2023-02-04T07:09:02;9.80;99.90
8824;DHT22;4448;50.904;4.694;2023-02-04T07:11:27;9.80;99.90
8824;DHT22;4448;50.904;4.694;2023-02-04T07:13:53;9.80;99.90
8824;DHT22;4448;50.904;4.694;2023-02-04T07:16:19;9.80;99.90
8824;DHT22;4448;50.904;4.694;2023-02-04T07:18:44;9.80;99.90
8824;DHT22;4448;50.904;4.694;2023-02-04T07:21:10;9.80;99.90
8824;DHT22;4448;50.904;4.694;2023-02-04T07:23:35;9.80;99.90
8824;DHT22;4448;50.904;4.694;2023-02-04T07:26:01;9.80;99.90
8824;DHT22;4448;50.904;4.694;2023-02-04T07:28:27;9.80;99.90
8824;DHT22;4448;50.904;4.694;2023-02-04T07:30:52;9.80;99.90
8824;DHT22;4448;50.904;4.694;2023-02-04T07:33:18;9.80;99.90
8824;DHT22;4448;50.904;4.694;2023-02-04T07:35:43;9.80;99.90
8824;DHT22;4448;50.904;4.694;2023-02-04T07:38:09;9.80;99.90
8824;DHT22;4448;50.904;4.694;2023-02-04T07:40:35;9.80;99.90
8824;DHT22;4448;50.904;4.694;2023-02-04T07:43:00;9.80;99.90
8824;DHT22;4448;50.904;4.694;2023-02-04T07:45:26;9.80;99.90
8824;DHT22;4448;50.904;4.694;2023-02-04T07:47:51;9.80;99.90
8824;DHT22;4448;50.904;4.694;2023-02-04T07:50:17;9.80;99.90
8824;DHT22;4448;50.904;4.694;2023-02-04T07:52:43;9.80;99.90
8824;DHT22;4448;50.904;4.694;2023-02-04T07:55:08;9.80;99.90
8824;DHT22;4448;50.904;4.694;2023-02-04T07:57:34;9.80;99.90
8824;DHT22;4448;50.904;4.694;2023-02-04T08:00:00;9.80;99.90
8824;DHT22;4448;50.904;4.694;2023-02-04T08:02:26;9.80;99.90
8824;DHT22;4448;50.904;4.694;2023-02-04T08:04:52;9.80;99.90
8824;DHT22;4448;50.904;4.694;2023-02-04T08:07:17;9.80;99.90
8824;DHT22;4448;50.904;4.694;2023-02-04T08:09:43;9.80;99.90
8824;DHT22;4448;50.904;4.694;2023-02-04T08:12:09;9.80;99.90
8824;DHT22;4448;50.904;4.694;2023-02-04T08:14:34;9.80;99.90
8824;DHT22;4448;50.904;4.694;2023-02-04T08:17:01;9.80;99.90
8824;DHT22;4448;50.904;4.694;2023-02-04T08:19:27;9.80;99.90
8824;DHT22;4448;50.904;4.694;2023-02-04T08:21:53;9.80;99.90
8824;DHT22;4448;50.904;4.694;2023-02-04T08:24:18;9.80;99.90
8824;DHT22;4448;50.904;4.694;2023-02-04T08:26:44;9.80;99.90
8824;DHT22;4448;50.904;4.694;2023-02-04T08:29:10;9.80;99.90
8824;DHT22;4448;50.904;4.694;2023-02-04T08:31:36;9.80;99.90
8824;DHT22;4448;50.904;4.694;2023-02-04T08:34:03;9.80;99.90
8824;DHT22;4448;50.904;4.694;2023-02-04T08:36:29;9.90;99.90
8824;DHT22;4448;50.904;4.694;2023-02-04T08:38:55;9.90;99.90
8824;DHT22;4448;50.904;4.694;2023-02-04T08:41:21;9.90;99.90
8824;DHT22;4448;50.904;4.694;2023-02-04T08:43:46;9.90;99.90
8824;DHT22;4448;50.904;4.694;2023-02-04T08:46:12;9.90;99.90
8824;DHT22;4448;50.904;4.694;2023-02-04T08:48:37;9.90;99.90
8824;DHT22;4448;50.904;4.694;2023-02-04T08:51:03;9.90;99.90
8824;DHT22;4448;50.904;4.694;2023-02-04T08:53:29;9.90;99.90
8824;DHT22;4448;50.904;4.694;2023-02-04T08:55:54;9.90;99.90
8824;DHT22;4448;50.904;4.694;2023-02-04T08:58:20;10.00;99.90
8824;DHT22;4448;50.904;4.694;2023-02-04T09:00:46;10.00;99.90
8824;DHT22;4448;50.904;4.694;2023-02-04T09:03:11;10.00;99.90
8824;DHT22;4448;50.904;4.694;2023-02-04T09:05:37;10.00;99.90
8824;DHT22;4448;50.904;4.694;2023-02-04T09:08:02;10.00;99.90
8824;DHT22;4448;50.904;4.694;2023-02-04T09:10:29;10.00;99.90
8824;DHT22;4448;50.904;4.694;2023-02-04T09:12:55;10.00;99.90
8824;DHT22;4448;50.904;4.694;2023-02-04T09:15:22;10.00;99.90
8824;DHT22;4448;50.904;4.694;2023-02-04T09:17:49;10.10;99.90
8824;DHT22;4448;50.904;4.694;2023-02-04T09:20:15;10.10;99.90
8824;DHT22;4448;50.904;4.694;2023-02-04T09:22:40;10.10;99.90
8824;DHT22;4448;50.904;4.694;2023-02-04T09:25:06;10.10;99.90
8824;DHT22;4448;50.904;4.694;2023-02-04T09:27:32;10.10;99.90
8824;DHT22;4448;50.904;4.694;2023-02-04T09:29:58;10.10;99.90
8824;DHT22;4448;50.904;4.694;2023-02-04T09:32:24;10.10;99.90
8824;DHT22;4448;50.904;4.694;2023-02-04T09:34:49;10.10;99.90
8824;DHT22;4448;50.904;4.694;2023-02-04T09:37:15;10.10;99.90
8824;DHT22;4448;50.904;4.694;2023-02-04T09:39:40;10.20;99.90
8824;DHT22;4448;50.904;4.694;2023-02-04T09:42:09;10.20;99.90
8824;DHT22;4448;50.904;4.694;2023-02-04T09:44:37;10.20;99.90
8824;DHT22;4448;50.904;4.694;2023-02-04T09:47:03;10.20;99.90
8824;DHT22;4448;50.904;4.694;2023-02-04T09:49:29;10.20;99.90
8824;DHT22;4448;50.904;4.694;2023-02-04T09:51:55;10.20;99.90
8824;DHT22;4448;50.904;4.694;2023-02-04T09:54:21;10.30;99.90
8824;DHT22;4448;50.904;4.694;2023-02-04T09:56:48;10.30;99.90
8824;DHT22;4448;50.904;4.694;2023-02-04T09:59:20;10.30;99.90
8824;DHT22;4448;50.904;4.694;2023-02-04T10:01:54;10.30;99.90
8824;DHT22;4448;50.904;4.694;2023-02-04T10:04:22;10.30;99.90
8824;DHT22;4448;50.904;4.694;2023-02-04T10:06:48;10.30;99.90
8824;DHT22;4448;50.904;4.694;2023-02-04T10:09:15;10.40;99.90
8824;DHT22;4448;50.904;4.694;2023-02-04T10:11:44;10.40;99.90
8824;DHT22;4448;50.904;4.694;2023-02-04T10:14:20;10.40;99.90
8824;DHT22;4448;50.904;4.694;2023-02-04T10:16:51;10.40;99.90
8824;DHT22;4448;50.904;4.694;2023-02-04T10:19:18;10.40;99.90
8824;DHT22;4448;50.904;4.694;2023-02-04T10:21:44;10.40;99.90
8824;DHT22;4448;50.904;4.694;2023-02-04T10:24:19;10.40;99.90
8824;DHT22;4448;50.904;4.694;2023-02-04T10:26:46;10.40;99.90
8824;DHT22;4448;50.904;4.694;2023-02-04T10:29:22;10.40;99.90
8824;DHT22;4448;50.904;4.694;2023-02-04T10:31:53;10.50;99.90
8824;DHT22;4448;50.904;4.694;2023-02-04T10:34:23;10.50;99.90
8824;DHT22;4448;50.904;4.694;2023-02-04T10:36:53;10.50;99.90
8824;DHT22;4448;50.904;4.694;2023-02-04T10:39:24;10.50;99.90
8824;DHT22;4448;50.904;4.694;2023-02-04T10:41:53;10.50;99.90
8824;DHT22;4448;50.904;4.694;2023-02-04T10:44:24;10.50;99.90
8824;DHT22;4448;50.904;4.694;2023-02-04T10:47:05;10.50;99.90
8824;DHT22;4448;50.904;4.694;2023-02-04T10:49:31;10.60;99.90
8824;DHT22;4448;50.904;4.694;2023-02-04T10:51:57;10.60;99.90
8824;DHT22;4448;50.904;4.694;2023-02-04T10:54:26;10.60;99.90
8824;DHT22;4448;50.904;4.694;2023-02-04T10:57:20;10.60;99.90
8824;DHT22;4448;50.904;4.694;2023-02-04T10:59:48;10.70;99.90
8824;DHT22;4448;50.904;4.694;2023-02-04T11:02:39;10.70;99.90
8824;DHT22;4448;50.904;4.694;2023-02-04T11:05:15;10.70;99.90
8824;DHT22;4448;50.904;4.694;2023-02-04T11:07:42;10.70;99.90
8824;DHT22;4448;50.904;4.694;2023-02-04T11:10:16;10.70;99.90
8824;DHT22;4448;50.904;4.694;2023-02-04T11:12:59;10.70;99.90
8824;DHT22;4448;50.904;4.694;2023-02-04T11:15:50;11.00;99.90
8824;DHT22;4448;50.904;4.694;2023-02-04T11:24:05;10.70;99.90
8824;DHT22;4448;50.904;4.694;2023-02-04T11:26:46;10.70;99.90
8824;DHT22;4448;50.904;4.694;2023-02-04T11:31:56;10.70;99.90
8824;DHT22;4448;50.904;4.694;2023-02-04T11:37:44;10.80;99.90
8824;DHT22;4448;50.904;4.694;2023-02-04T11:40:25;10.80;99.90
8824;DHT22;4448;50.904;4.694;2023-02-04T11:43:11;10.80;99.90
8824;DHT22;4448;50.904;4.694;2023-02-04T11:46:18;10.80;99.90
8824;DHT22;4448;50.904;4.694;2023-02-04T11:48:44;10.80;99.90
8824;DHT22;4448;50.904;4.694;2023-02-04T11:51:14;10.80;99.90
8824;DHT22;4448;50.904;4.694;2023-02-04T11:53:40;10.80;99.90
8824;DHT22;4448;50.904;4.694;2023-02-04T11:56:06;10.90;99.90
8824;DHT22;4448;50.904;4.694;2023-02-04T11:58:32;10.90;99.90
8824;DHT22;4448;50.904;4.694;2023-02-04T12:00:58;10.90;99.90
8824;DHT22;4448;50.904;4.694;2023-02-04T12:03:31;10.90;99.90
8824;DHT22;4448;50.904;4.694;2023-02-04T12:06:00;11.00;99.90
8824;DHT22;4448;50.904;4.694;2023-02-04T12:08:32;11.00;99.90
8824;DHT22;4448;50.904;4.694;2023-02-04T12:13:24;11.00;99.90
8824;DHT22;4448;50.904;4.694;2023-02-04T12:15:57;11.10;99.90
8824;DHT22;4448;50.904;4.694;2023-02-04T12:18:23;11.10;99.90
8824;DHT22;4448;50.904;4.694;2023-02-04T12:20:49;11.10;99.90
8824;DHT22;4448;50.904;4.694;2023-02-04T12:23:14;11.10;99.90
8824;DHT22;4448;50.904;4.694;2023-02-04T12:25:40;11.10;99.90
8824;DHT22;4448;50.904;4.694;2023-02-04T12:28:05;11.10;99.90
8824;DHT22;4448;50.904;4.694;2023-02-04T12:30:31;11.10;99.90
8824;DHT22;4448;50.904;4.694;2023-02-04T12:32:57;11.10;99.90
8824;DHT22;4448;50.904;4.694;2023-02-04T12:35:22;11.10;99.90
8824;DHT22;4448;50.904;4.694;2023-02-04T12:37:48;11.10;99.90
8824;DHT22;4448;50.904;4.694;2023-02-04T12:40:21;11.10;99.90
8824;DHT22;4448;50.904;4.694;2023-02-04T12:42:47;11.10;99.90
8824;DHT22;4448;50.904;4.694;2023-02-04T12:45:14;11.10;99.90
8824;DHT22;4448;50.904;4.694;2023-02-04T12:47:40;11.10;99.90
8824;DHT22;4448;50.904;4.694;2023-02-04T12:50:07;11.10;99.90
8824;DHT22;4448;50.904;4.694;2023-02-04T12:52:33;11.10;99.90
8824;DHT22;4448;50.904;4.694;2023-02-04T12:54:59;11.10;99.90
8824;DHT22;4448;50.904;4.694;2023-02-04T12:57:26;11.10;99.90
8824;DHT22;4448;50.904;4.694;2023-02-04T12:59:51;11.10;99.90
8824;DHT22;4448;50.904;4.694;2023-02-04T13:02:17;11.10;99.90
8824;DHT22;4448;50.904;4.694;2023-02-04T13:04:43;11.10;99.90
8824;DHT22;4448;50.904;4.694;2023-02-04T13:07:09;11.10;99.90
8824;DHT22;4448;50.904;4.694;2023-02-04T13:09:35;11.10;99.90
8824;DHT22;4448;50.904;4.694;2023-02-04T13:12:01;11.10;99.90
8824;DHT22;4448;50.904;4.694;2023-02-04T13:14:27;11.10;99.90
8824;DHT22;4448;50.904;4.694;2023-02-04T13:16:53;11.10;99.90
8824;DHT22;4448;50.904;4.694;2023-02-04T13:19:18;11.10;99.90
8824;DHT22;4448;50.904;4.694;2023-02-04T13:21:44;11.10;99.90
8824;DHT22;4448;50.904;4.694;2023-02-04T13:24:09;11.10;99.90
8824;DHT22;4448;50.904;4.694;2023-02-04T13:26:35;11.10;99.90
8824;DHT22;4448;50.904;4.694;2023-02-04T13:29:01;11.10;99.90
8824;DHT22;4448;50.904;4.694;2023-02-04T13:31:26;11.10;99.90
8824;DHT22;4448;50.904;4.694;2023-02-04T13:33:52;11.10;99.90
8824;DHT22;4448;50.904;4.694;2023-02-04T13:36:18;11.20;99.90
8824;DHT22;4448;50.904;4.694;2023-02-04T13:38:43;11.20;99.90
8824;DHT22;4448;50.904;4.694;2023-02-04T13:41:09;11.20;99.90
8824;DHT22;4448;50.904;4.694;2023-02-04T13:43:35;11.20;99.90
8824;DHT22;4448;50.904;4.694;2023-02-04T13:46:01;11.20;99.90
8824;DHT22;4448;50.904;4.694;2023-02-04T13:48:28;11.20;99.90
8824;DHT22;4448;50.904;4.694;2023-02-04T13:50:54;11.30;99.90
8824;DHT22;4448;50.904;4.694;2023-02-04T13:53:20;11.30;99.90
8824;DHT22;4448;50.904;4.694;2023-02-04T13:55:45;11.30;99.90
8824;DHT22;4448;50.904;4.694;2023-02-04T13:58:11;11.30;99.90
8824;DHT22;4448;50.904;4.694;2023-02-04T14:00:36;11.30;99.90
8824;DHT22;4448;50.904;4.694;2023-02-04T14:03:03;11.30;99.90
8824;DHT22;4448;50.904;4.694;2023-02-04T14:05:28;11.40;99.90
8824;DHT22;4448;50.904;4.694;2023-02-04T14:07:54;11.40;99.90
8824;DHT22;4448;50.904;4.694;2023-02-04T14:10:20;11.40;99.90
8824;DHT22;4448;50.904;4.694;2023-02-04T14:12:52;11.40;99.90
8824;DHT22;4448;50.904;4.694;2023-02-04T14:15:18;11.40;99.90
8824;DHT22;4448;50.904;4.694;2023-02-04T14:17:44;11.40;99.90
8824;DHT22;4448;50.904;4.694;2023-02-04T14:20:10;11.40;99.90
8824;DHT22;4448;50.904;4.694;2023-02-04T14:22:36;11.40;99.90
8824;DHT22;4448;50.904;4.694;2023-02-04T14:25:01;11.50;99.90
8824;DHT22;4448;50.904;4.694;2023-02-04T14:27:27;11.40;99.90
8824;DHT22;4448;50.904;4.694;2023-02-04T14:29:53;11.40;99.90
8824;DHT22;4448;50.904;4.694;2023-02-04T14:32:18;11.40;99.90
8824;DHT22;4448;50.904;4.694;2023-02-04T14:34:45;11.40;99.90
8824;DHT22;4448;50.904;4.694;2023-02-04T14:37:11;11.40;99.90
8824;DHT22;4448;50.904;4.694;2023-02-04T14:39:40;11.40;99.90
8824;DHT22;4448;50.904;4.694;2023-02-04T14:42:26;11.40;99.90
8824;DHT22;4448;50.904;4.694;2023-02-04T14:44:51;11.40;99.90
8824;DHT22;4448;50.904;4.694;2023-02-04T14:47:17;11.40;99.90
8824;DHT22;4448;50.904;4.694;2023-02-04T14:49:42;11.40;99.90
8824;DHT22;4448;50.904;4.694;2023-02-04T14:52:08;11.40;99.90
8824;DHT22;4448;50.904;4.694;2023-02-04T14:54:35;11.40;99.90
8824;DHT22;4448;50.904;4.694;2023-02-04T14:57:02;11.30;99.90
8824;DHT22;4448;50.904;4.694;2023-02-04T14:59:27;11.30;99.90
8824;DHT22;4448;50.904;4.694;2023-02-04T15:01:53;11.30;99.90
8824;DHT22;4448;50.904;4.694;2023-02-04T15:04:19;11.30;99.90
8824;DHT22;4448;50.904;4.694;2023-02-04T15:06:44;11.30;99.90
8824;DHT22;4448;50.904;4.694;2023-02-04T15:09:15;11.30;99.90
8824;DHT22;4448;50.904;4.694;2023-02-04T15:11:41;11.30;99.90
8824;DHT22;4448;50.904;4.694;2023-02-04T15:14:06;11.30;99.90
8824;DHT22;4448;50.904;4.694;2023-02-04T15:16:32;11.30;99.90
8824;DHT22;4448;50.904;4.694;2023-02-04T15:18:58;11.20;99.90
8824;DHT22;4448;50.904;4.694;2023-02-04T15:21:23;11.20;99.90
8824;DHT22;4448;50.904;4.694;2023-02-04T15:23:49;11.20;99.90
8824;DHT22;4448;50.904;4.694;2023-02-04T15:26:14;11.20;99.90
8824;DHT22;4448;50.904;4.694;2023-02-04T15:28:40;11.20;99.90
8824;DHT22;4448;50.904;4.694;2023-02-04T15:31:06;11.20;99.90
8824;DHT22;4448;50.904;4.694;2023-02-04T15:33:31;11.20;99.90
8824;DHT22;4448;50.904;4.694;2023-02-04T15:35:57;11.10;99.90
8824;DHT22;4448;50.904;4.694;2023-02-04T15:38:23;11.10;99.90
8824;DHT22;4448;50.904;4.694;2023-02-04T15:40:48;11.10;99.90
8824;DHT22;4448;50.904;4.694;2023-02-04T15:43:14;11.10;99.90
8824;DHT22;4448;50.904;4.694;2023-02-04T15:45:40;11.10;99.90
8824;DHT22;4448;50.904;4.694;2023-02-04T15:48:08;11.10;99.90
8824;DHT22;4448;50.904;4.694;2023-02-04T15:50:35;11.10;99.90
8824;DHT22;4448;50.904;4.694;2023-02-04T15:53:01;11.10;99.90
8824;DHT22;4448;50.904;4.694;2023-02-04T15:55:26;11.10;99.90
8824;DHT22;4448;50.904;4.694;2023-02-04T15:57:52;11.10;99.90
8824;DHT22;4448;50.904;4.694;2023-02-04T16:00:23;11.10;99.90
8824;DHT22;4448;50.904;4.694;2023-02-04T16:02:49;11.10;99.90
8824;DHT22;4448;50.904;4.694;2023-02-04T16:05:15;11.10;99.90
8824;DHT22;4448;50.904;4.694;2023-02-04T16:07:41;11.10;99.90
8824;DHT22;4448;50.904;4.694;2023-02-04T16:10:10;11.10;99.90
8824;DHT22;4448;50.904;4.694;2023-02-04T16:12:42;11.00;99.90
8824;DHT22;4448;50.904;4.694;2023-02-04T16:15:08;11.00;99.90
8824;DHT22;4448;50.904;4.694;2023-02-04T16:17:34;11.00;99.90
8824;DHT22;4448;50.904;4.694;2023-02-04T16:19:59;11.00;99.90
8824;DHT22;4448;50.904;4.694;2023-02-04T16:22:26;11.00;99.90